Ignacio, Colorado
Current Conditions -  °F | °C
As of 8:53 PM on Tuesday 27 Jan 2015 (Local Time) from KDRO Reporting Station
Clear Clear  
Wind Chill: 33°   Ceiling: Unl
Heat Index: 33°   Visibility: 10mi
Dew Point: 27°   Wind: 3mph
Humidity: 78%   Direction: 30°NNE
Pressure: 30.3"   Gusts: NA
Location:  37.12°N, 107.63°W
Report Text: KDRO 280353Z AUTO 03003KT 10SM CLR 01/M03 A3030 RMK AO2 SLP276 T00061028
Loading
Personal Weather Stations






























Interactive Weather Map New forecast layout! Learn more

10-Day Weather Forecast

Advertisements
Track Severe Weather on mobile